sensor_id;sensor_type;location;lat;lon;timestamp;temperature;humidity
22081;DHT22;11207;59.512;18.050;2022-07-06T00:01:16;14.50;99.90
22081;DHT22;11207;59.512;18.050;2022-07-06T00:03:42;14.50;99.90
22081;DHT22;11207;59.512;18.050;2022-07-06T00:06:08;14.60;99.90
22081;DHT22;11207;59.512;18.050;2022-07-06T00:08:33;14.50;99.90
22081;DHT22;11207;59.512;18.050;2022-07-06T00:10:59;14.50;99.90
22081;DHT22;11207;59.512;18.050;2022-07-06T00:13:25;14.40;99.90
22081;DHT22;11207;59.512;18.050;2022-07-06T00:15:51;14.40;99.90
22081;DHT22;11207;59.512;18.050;2022-07-06T00:18:17;14.40;99.90
22081;DHT22;11207;59.512;18.050;2022-07-06T00:20:42;14.40;99.90
22081;DHT22;11207;59.512;18.050;2022-07-06T00:23:08;14.40;99.90
22081;DHT22;11207;59.512;18.050;2022-07-06T00:25:34;14.40;99.90
22081;DHT22;11207;59.512;18.050;2022-07-06T00:27:59;14.40;99.90
22081;DHT22;11207;59.512;18.050;2022-07-06T00:30:25;14.40;99.90
22081;DHT22;11207;59.512;18.050;2022-07-06T00:32:51;14.40;99.90
22081;DHT22;11207;59.512;18.050;2022-07-06T00:35:16;14.40;99.90
22081;DHT22;11207;59.512;18.050;2022-07-06T00:37:42;14.30;99.90
22081;DHT22;11207;59.512;18.050;2022-07-06T00:40:08;14.30;99.90
22081;DHT22;11207;59.512;18.050;2022-07-06T00:42:42;14.30;99.90
22081;DHT22;11207;59.512;18.050;2022-07-06T00:45:09;14.30;99.90
22081;DHT22;11207;59.512;18.050;2022-07-06T00:47:34;14.30;99.90
22081;DHT22;11207;59.512;18.050;2022-07-06T00:50:00;14.30;99.90
22081;DHT22;11207;59.512;18.050;2022-07-06T00:52:47;14.30;99.90
22081;DHT22;11207;59.512;18.050;2022-07-06T00:55:15;14.30;99.90
22081;DHT22;11207;59.512;18.050;2022-07-06T00:57:41;14.30;99.90
22081;DHT22;11207;59.512;18.050;2022-07-06T01:00:12;14.30;99.90
22081;DHT22;11207;59.512;18.050;2022-07-06T01:02:38;14.30;99.90
22081;DHT22;11207;59.512;18.050;2022-07-06T01:05:04;14.30;99.90
22081;DHT22;11207;59.512;18.050;2022-07-06T01:07:30;14.30;99.90
22081;DHT22;11207;59.512;18.050;2022-07-06T01:09:56;14.30;99.90
22081;DHT22;11207;59.512;18.050;2022-07-06T01:12:23;14.30;99.90
22081;DHT22;11207;59.512;18.050;2022-07-06T01:14:49;14.30;99.90
22081;DHT22;11207;59.512;18.050;2022-07-06T01:17:16;14.30;99.90
22081;DHT22;11207;59.512;18.050;2022-07-06T01:19:42;14.30;99.90
22081;DHT22;11207;59.512;18.050;2022-07-06T01:22:09;14.30;99.90
22081;DHT22;11207;59.512;18.050;2022-07-06T01:24:36;14.30;99.90
22081;DHT22;11207;59.512;18.050;2022-07-06T01:27:03;14.30;99.90
22081;DHT22;11207;59.512;18.050;2022-07-06T01:29:29;14.30;99.90
22081;DHT22;11207;59.512;18.050;2022-07-06T01:31:55;14.20;99.90
22081;DHT22;11207;59.512;18.050;2022-07-06T01:34:21;14.20;99.90
22081;DHT22;11207;59.512;18.050;2022-07-06T01:36:47;14.20;99.90
22081;DHT22;11207;59.512;18.050;2022-07-06T01:39:13;14.20;99.90
22081;DHT22;11207;59.512;18.050;2022-07-06T01:41:39;14.20;99.90
22081;DHT22;11207;59.512;18.050;2022-07-06T01:44:05;14.20;99.90
22081;DHT22;11207;59.512;18.050;2022-07-06T01:46:31;14.20;99.90
22081;DHT22;11207;59.512;18.050;2022-07-06T01:48:57;14.10;99.90
22081;DHT22;11207;59.512;18.050;2022-07-06T01:51:23;14.10;99.90
22081;DHT22;11207;59.512;18.050;2022-07-06T01:53:50;14.10;99.90
22081;DHT22;11207;59.512;18.050;2022-07-06T01:56:16;14.10;99.90
22081;DHT22;11207;59.512;18.050;2022-07-06T01:58:42;14.10;99.90
22081;DHT22;11207;59.512;18.050;2022-07-06T02:01:13;14.10;99.90
22081;DHT22;11207;59.512;18.050;2022-07-06T02:03:39;14.00;99.90
22081;DHT22;11207;59.512;18.050;2022-07-06T02:06:06;14.00;99.90
22081;DHT22;11207;59.512;18.050;2022-07-06T02:08:32;14.00;99.90
22081;DHT22;11207;59.512;18.050;2022-07-06T02:10:58;14.00;99.90
22081;DHT22;11207;59.512;18.050;2022-07-06T02:13:24;14.00;99.90
22081;DHT22;11207;59.512;18.050;2022-07-06T02:15:50;13.90;99.90
22081;DHT22;11207;59.512;18.050;2022-07-06T02:18:15;14.00;99.90
22081;DHT22;11207;59.512;18.050;2022-07-06T02:20:41;14.00;99.90
22081;DHT22;11207;59.512;18.050;2022-07-06T02:23:07;14.00;99.90
22081;DHT22;11207;59.512;18.050;2022-07-06T02:25:33;13.90;99.90
22081;DHT22;11207;59.512;18.050;2022-07-06T02:27:59;13.90;99.90
22081;DHT22;11207;59.512;18.050;2022-07-06T02:30:25;14.00;99.90
22081;DHT22;11207;59.512;18.050;2022-07-06T02:32:50;13.90;99.90
22081;DHT22;11207;59.512;18.050;2022-07-06T02:35:16;13.90;99.90
22081;DHT22;11207;59.512;18.050;2022-07-06T02:37:42;13.90;99.90
22081;DHT22;11207;59.512;18.050;2022-07-06T02:40:08;13.80;99.90
22081;DHT22;11207;59.512;18.050;2022-07-06T02:42:34;13.80;99.90
22081;DHT22;11207;59.512;18.050;2022-07-06T02:44:59;13.80;99.90
22081;DHT22;11207;59.512;18.050;2022-07-06T02:47:25;13.80;99.90
22081;DHT22;11207;59.512;18.050;2022-07-06T02:49:51;13.80;99.90
22081;DHT22;11207;59.512;18.050;2022-07-06T02:52:18;13.80;99.90
22081;DHT22;11207;59.512;18.050;2022-07-06T02:54:43;13.80;99.90
22081;DHT22;11207;59.512;18.050;2022-07-06T02:57:09;13.70;99.90
22081;DHT22;11207;59.512;18.050;2022-07-06T02:59:35;13.80;99.90
22081;DHT22;11207;59.512;18.050;2022-07-06T03:02:02;13.80;99.90
22081;DHT22;11207;59.512;18.050;2022-07-06T03:04:28;13.80;99.90
22081;DHT22;11207;59.512;18.050;2022-07-06T03:06:53;13.90;99.90
22081;DHT22;11207;59.512;18.050;2022-07-06T03:09:19;13.90;99.90
22081;DHT22;11207;59.512;18.050;2022-07-06T03:11:45;13.90;99.90
22081;DHT22;11207;59.512;18.050;2022-07-06T03:14:10;14.00;99.90
22081;DHT22;11207;59.512;18.050;2022-07-06T03:16:36;14.10;99.90
22081;DHT22;11207;59.512;18.050;2022-07-06T03:19:02;14.10;99.90
22081;DHT22;11207;59.512;18.050;2022-07-06T03:21:30;14.10;99.90
22081;DHT22;11207;59.512;18.050;2022-07-06T03:23:56;14.20;99.90
22081;DHT22;11207;59.512;18.050;2022-07-06T03:26:21;14.30;99.90
22081;DHT22;11207;59.512;18.050;2022-07-06T03:28:47;14.30;99.90
22081;DHT22;11207;59.512;18.050;2022-07-06T03:31:12;14.40;99.90
22081;DHT22;11207;59.512;18.050;2022-07-06T03:33:38;14.50;99.90
22081;DHT22;11207;59.512;18.050;2022-07-06T03:36:04;14.50;99.90
22081;DHT22;11207;59.512;18.050;2022-07-06T03:38:30;14.50;99.90
22081;DHT22;11207;59.512;18.050;2022-07-06T03:40:56;14.50;99.90
22081;DHT22;11207;59.512;18.050;2022-07-06T03:43:22;14.60;99.90
22081;DHT22;11207;59.512;18.050;2022-07-06T03:45:48;14.60;99.90
22081;DHT22;11207;59.512;18.050;2022-07-06T03:48:13;14.70;99.90
22081;DHT22;11207;59.512;18.050;2022-07-06T03:50:39;14.70;99.90
22081;DHT22;11207;59.512;18.050;2022-07-06T03:53:05;14.70;99.90
22081;DHT22;11207;59.512;18.050;2022-07-06T03:55:30;14.70;99.90
22081;DHT22;11207;59.512;18.050;2022-07-06T03:57:56;14.80;99.90
22081;DHT22;11207;59.512;18.050;2022-07-06T04:00:22;14.90;99.90
22081;DHT22;11207;59.512;18.050;2022-07-06T04:02:47;14.90;99.90
22081;DHT22;11207;59.512;18.050;2022-07-06T04:05:13;14.90;99.90
22081;DHT22;11207;59.512;18.050;2022-07-06T04:07:39;15.00;99.90
22081;DHT22;11207;59.512;18.050;2022-07-06T04:10:05;15.00;99.90
22081;DHT22;11207;59.512;18.050;2022-07-06T04:12:31;15.00;99.90
22081;DHT22;11207;59.512;18.050;2022-07-06T04:14:57;15.00;99.90
22081;DHT22;11207;59.512;18.050;2022-07-06T04:17:23;15.00;99.90
22081;DHT22;11207;59.512;18.050;2022-07-06T04:20:08;15.10;99.90
22081;DHT22;11207;59.512;18.050;2022-07-06T04:22:40;15.20;99.90
22081;DHT22;11207;59.512;18.050;2022-07-06T04:25:06;15.40;99.90
22081;DHT22;11207;59.512;18.050;2022-07-06T04:27:31;15.50;99.90
22081;DHT22;11207;59.512;18.050;2022-07-06T04:29:57;15.60;99.90
22081;DHT22;11207;59.512;18.050;2022-07-06T04:32:23;15.70;99.90
22081;DHT22;11207;59.512;18.050;2022-07-06T04:34:48;15.80;99.90
22081;DHT22;11207;59.512;18.050;2022-07-06T04:37:14;16.00;99.90
22081;DHT22;11207;59.512;18.050;2022-07-06T04:39:39;16.20;99.90
22081;DHT22;11207;59.512;18.050;2022-07-06T04:42:05;16.50;99.90
22081;DHT22;11207;59.512;18.050;2022-07-06T04:44:31;16.80;99.90
22081;DHT22;11207;59.512;18.050;2022-07-06T04:46:56;16.90;99.90
22081;DHT22;11207;59.512;18.050;2022-07-06T04:49:22;16.90;99.90
22081;DHT22;11207;59.512;18.050;2022-07-06T04:51:47;16.90;99.90
22081;DHT22;11207;59.512;18.050;2022-07-06T04:54:13;16.90;99.90
22081;DHT22;11207;59.512;18.050;2022-07-06T04:56:39;16.70;99.90
22081;DHT22;11207;59.512;18.050;2022-07-06T04:59:04;16.60;99.90
22081;DHT22;11207;59.512;18.050;2022-07-06T05:01:30;16.60;99.90
22081;DHT22;11207;59.512;18.050;2022-07-06T05:03:55;16.50;99.90
22081;DHT22;11207;59.512;18.050;2022-07-06T05:06:21;16.50;99.90
22081;DHT22;11207;59.512;18.050;2022-07-06T05:08:47;16.40;99.90
22081;DHT22;11207;59.512;18.050;2022-07-06T05:11:12;16.40;99.90
22081;DHT22;11207;59.512;18.050;2022-07-06T05:13:38;16.60;99.90
22081;DHT22;11207;59.512;18.050;2022-07-06T05:16:04;16.70;99.90
22081;DHT22;11207;59.512;18.050;2022-07-06T05:18:29;17.00;99.90
22081;DHT22;11207;59.512;18.050;2022-07-06T05:20:55;17.30;99.90
22081;DHT22;11207;59.512;18.050;2022-07-06T05:23:21;17.70;99.90
22081;DHT22;11207;59.512;18.050;2022-07-06T05:25:47;18.00;99.90
22081;DHT22;11207;59.512;18.050;2022-07-06T05:28:12;18.40;99.90
22081;DHT22;11207;59.512;18.050;2022-07-06T05:30:38;18.90;99.90
22081;DHT22;11207;59.512;18.050;2022-07-06T05:33:04;18.90;99.90
22081;DHT22;11207;59.512;18.050;2022-07-06T05:35:29;19.30;99.90
22081;DHT22;11207;59.512;18.050;2022-07-06T05:37:55;19.40;99.90
22081;DHT22;11207;59.512;18.050;2022-07-06T05:40:20;19.70;99.90
22081;DHT22;11207;59.512;18.050;2022-07-06T05:42:46;19.90;99.90
22081;DHT22;11207;59.512;18.050;2022-07-06T05:45:12;20.00;99.90
22081;DHT22;11207;59.512;18.050;2022-07-06T05:47:37;20.00;99.90
22081;DHT22;11207;59.512;18.050;2022-07-06T05:50:22;20.00;99.90
22081;DHT22;11207;59.512;18.050;2022-07-06T05:52:59;20.30;99.90
22081;DHT22;11207;59.512;18.050;2022-07-06T05:55:33;20.40;99.90
22081;DHT22;11207;59.512;18.050;2022-07-06T05:57:58;20.60;99.90
22081;DHT22;11207;59.512;18.050;2022-07-06T06:00:25;20.70;99.90
22081;DHT22;11207;59.512;18.050;2022-07-06T06:02:51;20.70;99.90
22081;DHT22;11207;59.512;18.050;2022-07-06T06:05:18;20.60;99.90
22081;DHT22;11207;59.512;18.050;2022-07-06T06:07:44;20.70;99.90
22081;DHT22;11207;59.512;18.050;2022-07-06T06:10:14;21.00;99.90
22081;DHT22;11207;59.512;18.050;2022-07-06T06:12:41;20.90;99.90
22081;DHT22;11207;59.512;18.050;2022-07-06T06:15:08;21.10;99.90
22081;DHT22;11207;59.512;18.050;2022-07-06T06:17:35;21.10;99.90
22081;DHT22;11207;59.512;18.050;2022-07-06T06:20:02;21.10;99.90
22081;DHT22;11207;59.512;18.050;2022-07-06T06:22:28;20.90;99.90
22081;DHT22;11207;59.512;18.050;2022-07-06T06:24:53;20.70;99.90
22081;DHT22;11207;59.512;18.050;2022-07-06T06:27:19;20.40;99.90
22081;DHT22;11207;59.512;18.050;2022-07-06T06:29:45;20.50;99.90
22081;DHT22;11207;59.512;18.050;2022-07-06T06:32:12;20.70;99.90
22081;DHT22;11207;59.512;18.050;2022-07-06T06:34:38;20.40;99.90
22081;DHT22;11207;59.512;18.050;2022-07-06T06:37:04;20.40;99.90
22081;DHT22;11207;59.512;18.050;2022-07-06T06:39:30;20.40;99.90
22081;DHT22;11207;59.512;18.050;2022-07-06T06:41:56;20.30;99.90
22081;DHT22;11207;59.512;18.050;2022-07-06T06:44:22;20.30;99.90
22081;DHT22;11207;59.512;18.050;2022-07-06T06:46:51;20.20;99.90
22081;DHT22;11207;59.512;18.050;2022-07-06T06:49:17;20.40;99.90
22081;DHT22;11207;59.512;18.050;2022-07-06T06:51:44;20.30;99.90
22081;DHT22;11207;59.512;18.050;2022-07-06T06:54:09;20.30;99.90
22081;DHT22;11207;59.512;18.050;2022-07-06T06:56:35;20.40;99.90
22081;DHT22;11207;59.512;18.050;2022-07-06T06:59:01;20.30;99.90
22081;DHT22;11207;59.512;18.050;2022-07-06T07:01:27;20.00;99.90
22081;DHT22;11207;59.512;18.050;2022-07-06T07:03:53;19.90;99.90
22081;DHT22;11207;59.512;18.050;2022-07-06T07:06:20;19.90;99.90
22081;DHT22;11207;59.512;18.050;2022-07-06T07:08:46;20.30;99.90
22081;DHT22;11207;59.512;18.050;2022-07-06T07:11:11;20.30;99.90
22081;DHT22;11207;59.512;18.050;2022-07-06T07:13:37;20.00;99.90
22081;DHT22;11207;59.512;18.050;2022-07-06T07:16:03;19.90;99.90
22081;DHT22;11207;59.512;18.050;2022-07-06T07:18:29;20.30;99.90
22081;DHT22;11207;59.512;18.050;2022-07-06T07:20:54;20.50;99.90
22081;DHT22;11207;59.512;18.050;2022-07-06T07:23:20;20.60;99.90
22081;DHT22;11207;59.512;18.050;2022-07-06T07:25:45;20.80;99.90
22081;DHT22;11207;59.512;18.050;2022-07-06T07:28:11;20.90;99.90
22081;DHT22;11207;59.512;18.050;2022-07-06T07:30:37;21.00;99.90
22081;DHT22;11207;59.512;18.050;2022-07-06T07:33:02;21.10;99.90
22081;DHT22;11207;59.512;18.050;2022-07-06T07:35:28;21.20;99.90
22081;DHT22;11207;59.512;18.050;2022-07-06T07:37:54;21.40;99.90
22081;DHT22;11207;59.512;18.050;2022-07-06T07:40:20;21.30;99.90
22081;DHT22;11207;59.512;18.050;2022-07-06T07:42:45;21.50;99.90
22081;DHT22;11207;59.512;18.050;2022-07-06T07:45:11;21.70;99.90
22081;DHT22;11207;59.512;18.050;2022-07-06T07:47:38;21.80;99.90
22081;DHT22;11207;59.512;18.050;2022-07-06T07:50:05;21.70;99.90
22081;DHT22;11207;59.512;18.050;2022-07-06T07:52:31;21.80;99.90
22081;DHT22;11207;59.512;18.050;2022-07-06T07:54:57;21.80;99.90
22081;DHT22;11207;59.512;18.050;2022-07-06T07:57:23;21.70;99.90
22081;DHT22;11207;59.512;18.050;2022-07-06T07:59:48;21.70;99.90
22081;DHT22;11207;59.512;18.050;2022-07-06T08:02:14;22.00;99.90
22081;DHT22;11207;59.512;18.050;2022-07-06T08:04:40;22.20;99.90
22081;DHT22;11207;59.512;18.050;2022-07-06T08:07:06;22.50;99.90
22081;DHT22;11207;59.512;18.050;2022-07-06T08:09:32;22.40;99.90
22081;DHT22;11207;59.512;18.050;2022-07-06T08:11:57;22.50;99.90
22081;DHT22;11207;59.512;18.050;2022-07-06T08:14:25;22.40;99.90
22081;DHT22;11207;59.512;18.050;2022-07-06T08:16:51;22.50;99.90
22081;DHT22;11207;59.512;18.050;2022-07-06T08:19:19;22.80;99.90
22081;DHT22;11207;59.512;18.050;2022-07-06T08:21:45;23.20;99.90
22081;DHT22;11207;59.512;18.050;2022-07-06T08:24:10;23.50;99.90
22081;DHT22;11207;59.512;18.050;2022-07-06T08:26:36;23.60;99.50
22081;DHT22;11207;59.512;18.050;2022-07-06T08:29:02;23.40;99.90
22081;DHT22;11207;59.512;18.050;2022-07-06T08:31:28;23.80;99.90
22081;DHT22;11207;59.512;18.050;2022-07-06T08:33:56;24.00;99.90
22081;DHT22;11207;59.512;18.050;2022-07-06T08:36:22;24.00;99.00
22081;DHT22;11207;59.512;18.050;2022-07-06T08:38:49;23.90;98.60
22081;DHT22;11207;59.512;18.050;2022-07-06T08:41:15;23.80;99.00
22081;DHT22;11207;59.512;18.050;2022-07-06T08:43:42;23.60;98.40
22081;DHT22;11207;59.512;18.050;2022-07-06T08:46:08;23.30;97.40
22081;DHT22;11207;59.512;18.050;2022-07-06T08:48:38;22.80;99.90
22081;DHT22;11207;59.512;18.050;2022-07-06T08:51:06;23.10;97.80
22081;DHT22;11207;59.512;18.050;2022-07-06T08:53:32;23.80;99.90
22081;DHT22;11207;59.512;18.050;2022-07-06T08:55:58;24.30;98.90
22081;DHT22;11207;59.512;18.050;2022-07-06T08:58:25;24.50;96.70
22081;DHT22;11207;59.512;18.050;2022-07-06T09:00:52;24.80;94.00
22081;DHT22;11207;59.512;18.050;2022-07-06T09:03:21;25.00;96.40
22081;DHT22;11207;59.512;18.050;2022-07-06T09:05:47;25.20;93.20
22081;DHT22;11207;59.512;18.050;2022-07-06T09:08:13;25.50;96.90
22081;DHT22;11207;59.512;18.050;2022-07-06T09:10:39;25.50;93.70
22081;DHT22;11207;59.512;18.050;2022-07-06T09:13:07;25.40;93.50
22081;DHT22;11207;59.512;18.050;2022-07-06T09:15:34;25.40;98.10
22081;DHT22;11207;59.512;18.050;2022-07-06T09:18:00;25.90;95.20
22081;DHT22;11207;59.512;18.050;2022-07-06T09:20:25;25.60;91.90
22081;DHT22;11207;59.512;18.050;2022-07-06T09:22:57;25.70;88.20
22081;DHT22;11207;59.512;18.050;2022-07-06T09:25:24;25.20;92.80
22081;DHT22;11207;59.512;18.050;2022-07-06T09:27:50;25.50;91.80
22081;DHT22;11207;59.512;18.050;2022-07-06T09:30:20;25.30;92.20
22081;DHT22;11207;59.512;18.050;2022-07-06T09:32:51;25.50;92.10
22081;DHT22;11207;59.512;18.050;2022-07-06T09:35:31;25.60;90.40
22081;DHT22;11207;59.512;18.050;2022-07-06T09:38:06;25.80;91.50
22081;DHT22;11207;59.512;18.050;2022-07-06T09:40:34;26.00;94.70
22081;DHT22;11207;59.512;18.050;2022-07-06T09:45:48;26.20;90.20
22081;DHT22;11207;59.512;18.050;2022-07-06T09:48:16;26.40;88.20
22081;DHT22;11207;59.512;18.050;2022-07-06T09:50:50;26.20;85.20
22081;DHT22;11207;59.512;18.050;2022-07-06T09:53:17;25.80;86.90
22081;DHT22;11207;59.512;18.050;2022-07-06T09:55:47;26.10;90.30
22081;DHT22;11207;59.512;18.050;2022-07-06T09:58:14;26.30;93.10
22081;DHT22;11207;59.512;18.050;2022-07-06T10:00:41;25.90;87.90
22081;DHT22;11207;59.512;18.050;2022-07-06T10:03:07;25.50;87.20
22081;DHT22;11207;59.512;18.050;2022-07-06T10:05:37;25.50;88.60
22081;DHT22;11207;59.512;18.050;2022-07-06T10:08:02;25.60;96.80
22081;DHT22;11207;59.512;18.050;2022-07-06T10:10:31;25.80;89.40
22081;DHT22;11207;59.512;18.050;2022-07-06T10:12:59;25.10;90.80
22081;DHT22;11207;59.512;18.050;2022-07-06T10:15:26;25.00;90.40
22081;DHT22;11207;59.512;18.050;2022-07-06T10:17:53;24.90;91.00
22081;DHT22;11207;59.512;18.050;2022-07-06T10:20:21;24.80;93.40
22081;DHT22;11207;59.512;18.050;2022-07-06T10:22:50;24.00;90.60
22081;DHT22;11207;59.512;18.050;2022-07-06T10:25:17;23.40;94.20
22081;DHT22;11207;59.512;18.050;2022-07-06T10:27:45;23.30;92.80
22081;DHT22;11207;59.512;18.050;2022-07-06T10:30:12;22.90;87.50
22081;DHT22;11207;59.512;18.050;2022-07-06T10:32:39;22.30;87.90
22081;DHT22;11207;59.512;18.050;2022-07-06T10:35:06;22.10;90.30
22081;DHT22;11207;59.512;18.050;2022-07-06T10:37:32;22.00;86.60
22081;DHT22;11207;59.512;18.050;2022-07-06T10:39:59;21.50;90.00
22081;DHT22;11207;59.512;18.050;2022-07-06T10:42:56;21.10;99.50
22081;DHT22;11207;59.512;18.050;2022-07-06T10:48:33;20.00;99.90
22081;DHT22;11207;59.512;18.050;2022-07-06T10:50:59;19.30;99.90
22081;DHT22;11207;59.512;18.050;2022-07-06T10:53:29;19.30;99.90
22081;DHT22;11207;59.512;18.050;2022-07-06T10:55:56;19.30;99.90
22081;DHT22;11207;59.512;18.050;2022-07-06T10:58:49;19.50;99.90
22081;DHT22;11207;59.512;18.050;2022-07-06T11:01:17;19.90;99.90
22081;DHT22;11207;59.512;18.050;2022-07-06T11:13:47;21.20;99.90
22081;DHT22;11207;59.512;18.050;2022-07-06T11:16:14;21.40;99.90
22081;DHT22;11207;59.512;18.050;2022-07-06T11:18:45;21.20;99.90
22081;DHT22;11207;59.512;18.050;2022-07-06T11:21:22;21.20;99.90
22081;DHT22;11207;59.512;18.050;2022-07-06T11:23:49;21.50;99.90
22081;DHT22;11207;59.512;18.050;2022-07-06T11:26:16;21.40;99.90
22081;DHT22;11207;59.512;18.050;2022-07-06T11:28:41;21.40;99.90
22081;DHT22;11207;59.512;18.050;2022-07-06T11:31:07;21.10;99.90
22081;DHT22;11207;59.512;18.050;2022-07-06T11:33:33;20.90;99.90
22081;DHT22;11207;59.512;18.050;2022-07-06T11:36:19;20.40;99.90
22081;DHT22;11207;59.512;18.050;2022-07-06T11:38:47;20.40;99.90
22081;DHT22;11207;59.512;18.050;2022-07-06T11:41:13;20.60;99.90
22081;DHT22;11207;59.512;18.050;2022-07-06T11:43:43;20.90;99.90
22081;DHT22;11207;59.512;18.050;2022-07-06T11:46:29;20.60;99.90
22081;DHT22;11207;59.512;18.050;2022-07-06T11:49:00;20.30;99.90
22081;DHT22;11207;59.512;18.050;2022-07-06T11:51:28;20.50;99.90
22081;DHT22;11207;59.512;18.050;2022-07-06T11:53:58;21.00;99.90
22081;DHT22;11207;59.512;18.050;2022-07-06T11:56:28;21.10;99.90
22081;DHT22;11207;59.512;18.050;2022-07-06T11:58:56;21.40;99.90
22081;DHT22;11207;59.512;18.050;2022-07-06T12:01:23;21.60;99.90
22081;DHT22;11207;59.512;18.050;2022-07-06T12:03:50;21.80;99.90
22081;DHT22;11207;59.512;18.050;2022-07-06T12:06:21;21.80;99.90
22081;DHT22;11207;59.512;18.050;2022-07-06T12:08:52;22.10;99.90
22081;DHT22;11207;59.512;18.050;2022-07-06T12:11:27;22.50;99.90
22081;DHT22;11207;59.512;18.050;2022-07-06T12:13:55;22.90;99.90
22081;DHT22;11207;59.512;18.050;2022-07-06T12:16:22;22.90;99.90
22081;DHT22;11207;59.512;18.050;2022-07-06T12:18:53;22.70;99.90
22081;DHT22;11207;59.512;18.050;2022-07-06T12:21:20;22.50;99.90
22081;DHT22;11207;59.512;18.050;2022-07-06T12:23:50;22.80;99.90
22081;DHT22;11207;59.512;18.050;2022-07-06T12:26:20;22.70;99.80
22081;DHT22;11207;59.512;18.050;2022-07-06T12:28:53;22.60;99.90
22081;DHT22;11207;59.512;18.050;2022-07-06T12:31:35;22.50;99.90
22081;DHT22;11207;59.512;18.050;2022-07-06T12:34:02;22.30;99.90
22081;DHT22;11207;59.512;18.050;2022-07-06T12:36:31;22.30;99.90
22081;DHT22;11207;59.512;18.050;2022-07-06T12:38:57;22.40;99.90
22081;DHT22;11207;59.512;18.050;2022-07-06T12:41:28;22.40;99.90
22081;DHT22;11207;59.512;18.050;2022-07-06T12:48:57;23.00;99.90
22081;DHT22;11207;59.512;18.050;2022-07-06T12:51:24;23.40;99.90
22081;DHT22;11207;59.512;18.050;2022-07-06T12:53:50;23.50;96.70
22081;DHT22;11207;59.512;18.050;2022-07-06T12:56:16;23.20;96.80
22081;DHT22;11207;59.512;18.050;2022-07-06T12:59:01;23.00;99.20
22081;DHT22;11207;59.512;18.050;2022-07-06T13:01:27;22.90;98.70
22081;DHT22;11207;59.512;18.050;2022-07-06T13:03:57;23.00;99.60
22081;DHT22;11207;59.512;18.050;2022-07-06T13:06:34;23.20;99.80
22081;DHT22;11207;59.512;18.050;2022-07-06T13:09:00;23.20;98.80
22081;DHT22;11207;59.512;18.050;2022-07-06T13:11:26;23.00;98.60
22081;DHT22;11207;59.512;18.050;2022-07-06T13:13:51;22.90;99.90
22081;DHT22;11207;59.512;18.050;2022-07-06T13:16:18;22.90;99.50
22081;DHT22;11207;59.512;18.050;2022-07-06T13:18:43;22.70;99.00
22081;DHT22;11207;59.512;18.050;2022-07-06T13:21:09;22.70;99.90
22081;DHT22;11207;59.512;18.050;2022-07-06T13:23:36;22.70;99.90
22081;DHT22;11207;59.512;18.050;2022-07-06T13:26:07;22.30;99.90
22081;DHT22;11207;59.512;18.050;2022-07-06T13:28:33;22.20;99.90
22081;DHT22;11207;59.512;18.050;2022-07-06T13:30:59;22.20;99.90
22081;DHT22;11207;59.512;18.050;2022-07-06T13:33:24;22.10;99.90
22081;DHT22;11207;59.512;18.050;2022-07-06T13:35:50;22.00;99.90
22081;DHT22;11207;59.512;18.050;2022-07-06T13:38:16;21.80;99.90
22081;DHT22;11207;59.512;18.050;2022-07-06T13:40:41;21.90;99.90
22081;DHT22;11207;59.512;18.050;2022-07-06T13:43:07;21.90;99.90
22081;DHT22;11207;59.512;18.050;2022-07-06T13:45:32;21.40;99.40
22081;DHT22;11207;59.512;18.050;2022-07-06T13:47:58;21.10;99.90
22081;DHT22;11207;59.512;18.050;2022-07-06T13:50:24;20.70;99.90
22081;DHT22;11207;59.512;18.050;2022-07-06T13:52:50;20.30;99.90
22081;DHT22;11207;59.512;18.050;2022-07-06T13:55:16;20.10;99.90
22081;DHT22;11207;59.512;18.050;2022-07-06T13:57:42;19.80;99.90
22081;DHT22;11207;59.512;18.050;2022-07-06T14:00:09;19.80;99.90
22081;DHT22;11207;59.512;18.050;2022-07-06T14:02:34;20.00;99.90
22081;DHT22;11207;59.512;18.050;2022-07-06T14:05:00;20.30;99.90
22081;DHT22;11207;59.512;18.050;2022-07-06T14:07:26;20.60;99.90
22081;DHT22;11207;59.512;18.050;2022-07-06T14:09:51;20.80;99.90
22081;DHT22;11207;59.512;18.050;2022-07-06T14:12:17;21.10;99.90
22081;DHT22;11207;59.512;18.050;2022-07-06T14:14:43;21.30;99.90
22081;DHT22;11207;59.512;18.050;2022-07-06T14:17:08;21.30;99.90
22081;DHT22;11207;59.512;18.050;2022-07-06T14:19:34;21.30;99.90
22081;DHT22;11207;59.512;18.050;2022-07-06T14:22:00;21.40;99.90
22081;DHT22;11207;59.512;18.050;2022-07-06T14:24:25;21.40;99.90
22081;DHT22;11207;59.512;18.050;2022-07-06T14:26:51;21.30;99.90
22081;DHT22;11207;59.512;18.050;2022-07-06T14:29:17;21.40;99.90
22081;DHT22;11207;59.512;18.050;2022-07-06T14:31:42;21.40;99.90
22081;DHT22;11207;59.512;18.050;2022-07-06T14:34:08;21.40;99.90
22081;DHT22;11207;59.512;18.050;2022-07-06T14:36:34;21.50;99.90
22081;DHT22;11207;59.512;18.050;2022-07-06T14:39:03;21.30;99.90
22081;DHT22;11207;59.512;18.050;2022-07-06T14:41:29;21.40;99.90
22081;DHT22;11207;59.512;18.050;2022-07-06T14:43:55;21.50;99.90
22081;DHT22;11207;59.512;18.050;2022-07-06T14:46:21;21.40;99.90
22081;DHT22;11207;59.512;18.050;2022-07-06T14:48:47;21.40;99.90
22081;DHT22;11207;59.512;18.050;2022-07-06T14:51:12;21.50;99.90
22081;DHT22;11207;59.512;18.050;2022-07-06T14:53:38;21.40;99.90
22081;DHT22;11207;59.512;18.050;2022-07-06T14:56:04;21.30;99.90
22081;DHT22;11207;59.512;18.050;2022-07-06T14:58:30;21.20;99.90
22081;DHT22;11207;59.512;18.050;2022-07-06T15:00:56;21.20;99.90
22081;DHT22;11207;59.512;18.050;2022-07-06T15:03:21;21.10;99.90
22081;DHT22;11207;59.512;18.050;2022-07-06T15:05:48;20.90;99.90
22081;DHT22;11207;59.512;18.050;2022-07-06T15:08:14;20.80;99.90
22081;DHT22;11207;59.512;18.050;2022-07-06T15:10:41;20.60;99.90
22081;DHT22;11207;59.512;18.050;2022-07-06T15:13:07;20.40;99.90
22081;DHT22;11207;59.512;18.050;2022-07-06T15:15:33;20.20;99.90
22081;DHT22;11207;59.512;18.050;2022-07-06T15:17:58;20.10;99.90
22081;DHT22;11207;59.512;18.050;2022-07-06T15:20:24;19.90;99.90
22081;DHT22;11207;59.512;18.050;2022-07-06T15:22:50;19.80;99.90
22081;DHT22;11207;59.512;18.050;2022-07-06T15:25:15;19.90;99.90
22081;DHT22;11207;59.512;18.050;2022-07-06T15:27:41;20.00;99.90
22081;DHT22;11207;59.512;18.050;2022-07-06T15:30:07;20.20;99.90
22081;DHT22;11207;59.512;18.050;2022-07-06T15:32:33;20.20;99.90
22081;DHT22;11207;59.512;18.050;2022-07-06T15:34:58;20.10;99.90